createdAt,value
2018-10-07T00:01:31.315Z,5.40
2018-10-07T00:04:00.332Z,6.83
2018-10-07T00:06:28.588Z,6.27
2018-10-07T00:08:56.835Z,6.33
2018-10-07T00:11:25.862Z,5.73
2018-10-07T00:13:54.111Z,6.90
2018-10-07T00:16:23.158Z,4.97
2018-10-07T00:18:51.422Z,5.10
2018-10-07T00:21:19.740Z,5.67
2018-10-07T00:23:47.962Z,6.27
2018-10-07T00:26:16.281Z,4.67
2018-10-07T00:28:44.498Z,4.63
2018-10-07T00:31:12.750Z,3.70
2018-10-07T00:33:41.790Z,5.03
2018-10-07T00:36:10.031Z,5.50
2018-10-07T00:38:39.059Z,4.20
2018-10-07T00:41:07.298Z,4.90
2018-10-07T00:43:36.327Z,5.80
2018-10-07T00:46:04.566Z,4.67
2018-10-07T00:48:32.836Z,2.13
2018-10-07T00:51:01.856Z,2.87
2018-10-07T00:53:30.118Z,3.20
2018-10-07T00:55:58.442Z,1.60
2018-10-07T00:58:26.709Z,1.97
2018-10-07T01:00:55.002Z,2.03
2018-10-07T01:03:23.276Z,2.80
2018-10-07T01:05:51.510Z,3.87
2018-10-07T01:08:19.768Z,4.10
2018-10-07T01:10:48.036Z,5.20
2018-10-07T01:13:16.289Z,5.50
2018-10-07T01:15:44.554Z,5.80
2018-10-07T01:18:12.825Z,5.30
2018-10-07T01:20:41.085Z,6.07
2018-10-07T01:23:09.346Z,6.40
2018-10-07T01:25:37.621Z,5.00
2018-10-07T01:28:05.870Z,6.53
2018-10-07T01:30:34.135Z,5.10
2018-10-07T01:33:03.169Z,5.93
2018-10-07T01:35:31.445Z,5.87
2018-10-07T01:37:59.719Z,6.17
2018-10-07T01:40:27.994Z,5.83
2018-10-07T01:42:56.267Z,8.10
2018-10-07T01:45:24.593Z,6.20
2018-10-07T01:47:52.838Z,4.70
2018-10-07T01:50:21.108Z,7.47
2018-10-07T01:52:49.351Z,4.80
2018-10-07T01:55:17.633Z,6.70
2018-10-07T01:57:45.883Z,5.17
2018-10-07T02:00:14.707Z,5.03
2018-10-07T02:02:42.953Z,5.37
2018-10-07T02:05:11.278Z,5.97
2018-10-07T02:07:40.252Z,4.73
2018-10-07T02:10:08.526Z,4.93
2018-10-07T02:12:36.780Z,4.80
2018-10-07T02:15:05.039Z,6.07
2018-10-07T02:17:33.292Z,4.47
2018-10-07T02:20:02.324Z,6.53
2018-10-07T02:22:31.482Z,7.60
2018-10-07T02:25:00.550Z,5.70
2018-10-07T02:27:28.788Z,4.43
2018-10-07T02:29:57.042Z,3.30
2018-10-07T02:32:25.322Z,4.50
2018-10-07T02:34:53.571Z,5.13
2018-10-07T02:37:22.602Z,4.50
2018-10-07T02:39:50.845Z,4.77
2018-10-07T02:42:19.893Z,5.23
2018-10-07T02:44:48.907Z,4.37
2018-10-07T02:47:18.986Z,5.10
2018-10-07T02:49:47.241Z,3.73
2018-10-07T02:52:15.502Z,4.23
2018-10-07T02:54:44.518Z,4.80
2018-10-07T02:57:12.754Z,4.10
2018-10-07T02:59:41.014Z,4.83
2018-10-07T03:02:09.269Z,5.13
2018-10-07T03:04:37.592Z,5.83
2018-10-07T03:07:06.050Z,4.27
2018-10-07T03:09:34.337Z,5.10
2018-10-07T03:12:02.566Z,5.87
2018-10-07T03:14:30.846Z,5.70
2018-10-07T03:16:59.085Z,5.23
2018-10-07T03:19:27.486Z,5.43
2018-10-07T03:21:55.731Z,4.53
2018-10-07T03:24:24.815Z,5.27
2018-10-07T03:26:53.043Z,5.83
2018-10-07T03:29:21.306Z,6.30
2018-10-07T03:31:49.567Z,5.27
2018-10-07T03:34:17.819Z,5.70
2018-10-07T03:36:46.842Z,6.37
2018-10-07T03:39:15.091Z,5.53
2018-10-07T03:41:44.122Z,6.20
2018-10-07T03:44:12.365Z,5.47
2018-10-07T03:46:40.641Z,5.33
2018-10-07T03:49:10.063Z,5.60
2018-10-07T03:51:38.327Z,7.10
2018-10-07T03:54:06.579Z,5.07
2018-10-07T03:56:35.646Z,4.87
2018-10-07T03:59:03.882Z,5.73
2018-10-07T04:01:32.147Z,4.87
2018-10-07T04:04:01.323Z,5.23
2018-10-07T04:06:30.596Z,5.77
2018-10-07T04:08:58.946Z,5.67
2018-10-07T04:11:27.201Z,5.20
2018-10-07T04:13:55.449Z,5.17
2018-10-07T04:16:24.491Z,5.43
2018-10-07T04:18:52.736Z,4.83
2018-10-07T04:21:22.043Z,6.43
2018-10-07T04:23:50.614Z,5.07
2018-10-07T04:26:18.882Z,3.60
2018-10-07T04:28:47.130Z,4.27
2018-10-07T04:31:16.167Z,6.00
2018-10-07T04:33:44.407Z,3.83
2018-10-07T04:36:13.439Z,5.53
2018-10-07T04:38:41.682Z,5.47
2018-10-07T04:41:10.716Z,4.60
2018-10-07T04:43:38.967Z,4.30
2018-10-07T04:46:07.245Z,5.30
2018-10-07T04:48:35.480Z,4.13
2018-10-07T04:51:03.740Z,3.80
2018-10-07T04:53:31.997Z,3.90
2018-10-07T04:56:00.236Z,4.17
2018-10-07T04:58:28.490Z,3.90
2018-10-07T05:00:57.521Z,4.80
2018-10-07T05:03:26.095Z,5.77
2018-10-07T05:05:54.342Z,5.43
2018-10-07T05:08:23.356Z,4.17
2018-10-07T05:10:51.622Z,4.47
2018-10-07T05:13:19.879Z,3.93
2018-10-07T05:15:49.108Z,4.20
2018-10-07T05:18:17.377Z,4.40
2018-10-07T05:20:45.681Z,5.23
2018-10-07T05:23:13.891Z,3.97
2018-10-07T05:25:42.240Z,3.90
2018-10-07T05:28:10.499Z,4.07
2018-10-07T05:30:38.759Z,4.77
2018-10-07T05:33:07.140Z,5.13
2018-10-07T05:35:36.192Z,4.13
2018-10-07T05:38:04.431Z,4.13
2018-10-07T05:40:32.694Z,3.50
2018-10-07T05:43:00.960Z,3.73
2018-10-07T05:45:29.219Z,4.70
2018-10-07T05:47:57.478Z,6.07
2018-10-07T05:50:26.932Z,5.33
2018-10-07T05:52:55.167Z,4.97
2018-10-07T05:55:23.441Z,4.30
2018-10-07T05:57:52.434Z,5.03
2018-10-07T06:00:21.252Z,4.83
2018-10-07T06:02:49.518Z,5.00
2018-10-07T06:05:17.774Z,6.10
2018-10-07T06:07:46.051Z,4.00
2018-10-07T06:10:14.289Z,7.33
2018-10-07T06:12:42.547Z,4.50
2018-10-07T06:15:16.073Z,5.80
2018-10-07T06:17:44.310Z,4.60
2018-10-07T06:20:12.578Z,5.70
2018-10-07T06:22:40.826Z,7.23
2018-10-07T06:25:09.100Z,5.33
2018-10-07T06:27:37.345Z,4.97
2018-10-07T06:30:06.391Z,6.10
2018-10-07T06:32:34.627Z,5.50
2018-10-07T06:35:03.761Z,5.57
2018-10-07T06:37:31.999Z,6.57
2018-10-07T06:40:01.034Z,6.00
2018-10-07T06:42:29.282Z,8.17
2018-10-07T06:44:57.602Z,6.30
2018-10-07T06:47:25.905Z,6.40
2018-10-07T06:49:54.127Z,7.17
2018-10-07T06:52:22.443Z,9.30
2018-10-07T06:54:50.696Z,7.43
2018-10-07T06:57:19.106Z,8.80
2018-10-07T06:59:48.172Z,8.57
2018-10-07T07:02:17.227Z,7.47
2018-10-07T07:04:45.499Z,6.97
2018-10-07T07:07:13.773Z,7.40
2018-10-07T07:09:42.182Z,6.40
2018-10-07T07:12:10.427Z,7.13
2018-10-07T07:14:38.681Z,6.10
2018-10-07T07:17:07.892Z,7.77
2018-10-07T07:19:37.109Z,8.43
2018-10-07T07:22:05.346Z,10.27
2018-10-07T07:24:34.374Z,9.13
2018-10-07T07:27:02.622Z,8.83
2018-10-07T07:29:31.642Z,9.77
2018-10-07T07:31:59.879Z,9.03
2018-10-07T07:34:28.911Z,10.10
2018-10-07T07:36:57.239Z,9.97
2018-10-07T07:39:25.466Z,9.27
2018-10-07T07:41:53.715Z,11.83
2018-10-07T07:44:21.991Z,9.53
2018-10-07T07:46:50.251Z,9.47
2018-10-07T07:49:19.263Z,10.63
2018-10-07T07:51:47.536Z,10.80
2018-10-07T07:54:15.802Z,8.23
2018-10-07T07:56:44.820Z,8.43
2018-10-07T07:59:13.071Z,7.20
2018-10-07T08:01:41.338Z,10.07
2018-10-07T08:04:10.361Z,8.13
2018-10-07T08:06:38.630Z,8.13
2018-10-07T08:09:06.879Z,7.63
2018-10-07T08:11:35.924Z,7.43
2018-10-07T08:14:04.178Z,7.10
2018-10-07T08:16:32.452Z,7.80
2018-10-07T08:19:00.704Z,9.77
2018-10-07T08:21:29.829Z,10.00
2018-10-07T08:23:58.117Z,10.47
2018-10-07T08:26:27.086Z,6.93
2018-10-07T08:28:55.381Z,6.93
2018-10-07T08:31:23.595Z,8.43
2018-10-07T08:33:51.916Z,9.83
2018-10-07T08:36:20.972Z,7.97
2018-10-07T08:38:49.221Z,8.27
2018-10-07T08:41:17.475Z,11.27
2018-10-07T08:43:45.723Z,8.40
2018-10-07T08:46:14.147Z,9.67
2018-10-07T08:48:42.438Z,12.80
2018-10-07T08:51:10.691Z,9.63
2018-10-07T08:53:40.060Z,9.93
2018-10-07T08:56:08.444Z,8.70
2018-10-07T08:58:37.314Z,8.30
2018-10-07T09:01:05.604Z,11.73
2018-10-07T09:03:33.849Z,9.10
2018-10-07T09:06:02.875Z,8.73
2018-10-07T09:08:31.131Z,12.00
2018-10-07T09:10:59.411Z,7.87
2018-10-07T09:13:28.425Z,10.93
2018-10-07T09:15:56.689Z,8.87
2018-10-07T09:18:24.946Z,9.97
2018-10-07T09:20:53.237Z,9.53
2018-10-07T09:23:21.742Z,7.37
2018-10-07T09:25:49.994Z,10.67
2018-10-07T09:28:18.263Z,8.23
2018-10-07T09:30:46.859Z,11.87
2018-10-07T09:33:15.125Z,9.60
2018-10-07T09:35:43.378Z,9.93
2018-10-07T09:38:12.555Z,8.33
2018-10-07T09:40:41.777Z,9.13
2018-10-07T09:43:10.805Z,9.03
2018-10-07T09:45:39.120Z,12.13
2018-10-07T09:48:07.367Z,7.63
2018-10-07T09:50:35.739Z,11.53
2018-10-07T09:53:03.998Z,9.07
2018-10-07T09:55:32.286Z,8.97
2018-10-07T09:58:00.742Z,9.27
2018-10-07T10:00:28.950Z,7.47
2018-10-07T10:02:57.190Z,13.07
2018-10-07T10:05:25.462Z,10.30
2018-10-07T10:07:53.748Z,8.77
2018-10-07T10:10:22.015Z,10.00
2018-10-07T10:12:50.285Z,8.43
2018-10-07T10:15:18.531Z,7.30
2018-10-07T10:17:47.711Z,8.53
2018-10-07T10:20:15.974Z,9.60
2018-10-07T10:22:45.730Z,9.87
2018-10-07T10:25:14.012Z,11.00
2018-10-07T10:27:42.262Z,9.20
2018-10-07T10:30:11.331Z,8.83
2018-10-07T10:32:39.579Z,12.53
2018-10-07T10:35:07.831Z,10.07
2018-10-07T10:37:36.106Z,10.00
2018-10-07T10:40:04.433Z,9.63
2018-10-07T10:42:32.603Z,10.10
2018-10-07T10:45:00.876Z,8.53
2018-10-07T10:47:29.117Z,7.87
2018-10-07T10:49:57.390Z,12.20
2018-10-07T10:52:25.651Z,10.87
2018-10-07T10:54:53.915Z,10.40
2018-10-07T10:57:22.176Z,9.83
2018-10-07T10:59:50.475Z,10.10
2018-10-07T11:02:18.747Z,9.60
2018-10-07T11:04:47.004Z,10.47
2018-10-07T11:07:16.036Z,7.93
2018-10-07T11:09:44.286Z,14.27
2018-10-07T11:12:13.110Z,9.27
2018-10-07T11:14:41.375Z,10.53
2018-10-07T11:17:09.658Z,10.87
2018-10-07T11:19:38.063Z,14.53
2018-10-07T11:22:06.379Z,11.97
2018-10-07T11:24:34.651Z,12.80
2018-10-07T11:27:03.668Z,14.30
2018-10-07T11:29:31.945Z,12.30
2018-10-07T11:32:00.202Z,10.37
2018-10-07T11:34:28.453Z,10.17
2018-10-07T11:36:57.496Z,10.97
2018-10-07T11:39:26.517Z,8.93
2018-10-07T11:41:55.169Z,13.00
2018-10-07T11:44:23.427Z,9.23
2018-10-07T11:46:51.679Z,8.40
2018-10-07T11:49:20.730Z,9.67
2018-10-07T11:51:48.989Z,10.63
2018-10-07T11:54:17.267Z,7.90
2018-10-07T11:56:45.519Z,8.33
2018-10-07T11:59:13.789Z,8.93
2018-10-07T12:01:42.074Z,13.03
2018-10-07T12:04:10.662Z,9.77
2018-10-07T12:06:38.927Z,9.40
2018-10-07T12:09:07.274Z,10.90
2018-10-07T12:11:35.906Z,9.37
2018-10-07T12:14:04.175Z,9.07
2018-10-07T12:16:32.503Z,11.07
2018-10-07T12:19:01.439Z,8.73
2018-10-07T12:21:29.699Z,12.60
2018-10-07T12:23:57.981Z,11.83
2018-10-07T12:26:26.250Z,17.57
2018-10-07T12:28:54.598Z,13.27
2018-10-07T12:31:22.814Z,14.23
2018-10-07T12:33:51.834Z,13.67
2018-10-07T12:36:20.100Z,14.20
2018-10-07T12:38:48.383Z,13.07
2018-10-07T12:41:16.648Z,11.60
2018-10-07T12:43:44.919Z,17.10
2018-10-07T12:46:13.229Z,13.80
2018-10-07T12:48:41.516Z,14.10
2018-10-07T12:51:09.774Z,14.53
2018-10-07T12:53:38.038Z,14.47
2018-10-07T12:56:06.302Z,10.33
2018-10-07T12:58:34.554Z,13.30
2018-10-07T13:01:02.822Z,9.67
2018-10-07T13:03:31.090Z,9.13
2018-10-07T13:06:00.143Z,11.00
2018-10-07T13:08:28.384Z,9.50
2018-10-07T13:10:56.662Z,11.70
2018-10-07T13:13:24.954Z,10.87
2018-10-07T13:15:53.235Z,9.10
2018-10-07T13:18:21.746Z,10.73
2018-10-07T13:20:50.008Z,10.20
2018-10-07T13:23:18.286Z,12.37
2018-10-07T13:25:46.555Z,7.00
2018-10-07T13:28:14.843Z,9.07
2018-10-07T13:30:43.098Z,8.53
2018-10-07T13:33:11.510Z,11.93
2018-10-07T13:35:39.758Z,8.33
2018-10-07T13:38:08.045Z,8.87
2018-10-07T13:40:36.305Z,12.60
2018-10-07T13:43:04.583Z,9.07
2018-10-07T13:45:32.838Z,8.67
2018-10-07T13:48:01.094Z,8.20
2018-10-07T13:50:29.381Z,8.77
2018-10-07T13:52:57.632Z,7.77
2018-10-07T13:55:25.898Z,7.40
2018-10-07T13:57:54.178Z,13.03
2018-10-07T14:00:22.445Z,12.33
2018-10-07T14:02:50.719Z,9.70
2018-10-07T14:05:19.736Z,7.20
2018-10-07T14:07:48.009Z,10.13
2018-10-07T14:10:16.296Z,6.47
2018-10-07T14:12:44.567Z,10.43
2018-10-07T14:15:12.958Z,7.90
2018-10-07T14:17:41.989Z,9.80
2018-10-07T14:20:10.329Z,9.43
2018-10-07T14:22:38.570Z,9.63
2018-10-07T14:25:06.815Z,7.67
2018-10-07T14:27:35.873Z,11.07
2018-10-07T14:30:04.138Z,7.63
2018-10-07T14:32:32.436Z,9.00
2018-10-07T14:35:00.678Z,7.93
2018-10-07T14:37:28.935Z,9.43
2018-10-07T14:39:57.188Z,8.10
2018-10-07T14:42:26.239Z,11.90
2018-10-07T14:44:55.277Z,10.33
2018-10-07T14:47:24.370Z,9.50
2018-10-07T14:49:53.386Z,9.33
2018-10-07T14:52:21.671Z,9.57
2018-10-07T14:54:49.993Z,12.80
2018-10-07T14:57:18.241Z,7.70
2018-10-07T14:59:46.502Z,13.10
2018-10-07T15:02:14.751Z,11.80
2018-10-07T15:04:43.030Z,12.40
2018-10-07T15:07:11.316Z,11.87
2018-10-07T15:09:40.374Z,12.30
2018-10-07T15:12:08.694Z,14.97
2018-10-07T15:14:38.053Z,15.23
2018-10-07T15:17:06.335Z,16.83
2018-10-07T15:19:34.570Z,15.70
2018-10-07T15:22:02.853Z,20.03
2018-10-07T15:24:31.115Z,18.30
2018-10-07T15:26:59.388Z,16.13
2018-10-07T15:29:27.753Z,19.37
2018-10-07T15:31:56.990Z,21.20
2018-10-07T15:34:25.401Z,19.40
2018-10-07T15:36:53.582Z,18.97
2018-10-07T15:39:21.879Z,20.33
2018-10-07T15:41:50.130Z,19.23
2018-10-07T15:44:18.404Z,19.23
2018-10-07T15:46:46.682Z,20.90
2018-10-07T15:49:14.931Z,17.60
2018-10-07T15:51:43.971Z,20.87
2018-10-07T15:54:12.221Z,21.63
2018-10-07T15:56:40.553Z,23.47
2018-10-07T15:59:08.793Z,18.90
2018-10-07T16:01:37.047Z,17.40
2018-10-07T16:04:05.334Z,19.03
2018-10-07T16:06:33.598Z,19.23
2018-10-07T16:09:01.928Z,19.17
2018-10-07T16:11:30.186Z,20.83
2018-10-07T16:13:58.450Z,15.57
2018-10-07T16:16:26.758Z,17.60
2018-10-07T16:18:55.015Z,18.27
2018-10-07T16:21:23.277Z,16.07
2018-10-07T16:23:51.629Z,18.13
2018-10-07T16:26:19.978Z,16.03
2018-10-07T16:28:48.191Z,14.87
2018-10-07T16:31:16.460Z,16.57
2018-10-07T16:33:44.755Z,15.20
2018-10-07T16:36:13.022Z,17.90
2018-10-07T16:38:41.284Z,16.27
2018-10-07T16:41:09.553Z,13.73
2018-10-07T16:43:37.806Z,14.97
2018-10-07T16:46:06.876Z,12.10
2018-10-07T16:48:35.142Z,12.70
2018-10-07T16:51:03.423Z,13.60
2018-10-07T16:53:31.693Z,11.67
2018-10-07T16:55:59.954Z,13.50
2018-10-07T16:58:29.006Z,14.03
2018-10-07T17:00:57.282Z,11.27
2018-10-07T17:03:25.570Z,12.87
2018-10-07T17:05:53.810Z,11.93
2018-10-07T17:08:22.107Z,9.90
2018-10-07T17:10:51.140Z,12.03
2018-10-07T17:13:19.475Z,13.97
2018-10-07T17:15:47.686Z,12.63
2018-10-07T17:18:16.538Z,10.60
2018-10-07T17:20:44.842Z,12.50
2018-10-07T17:23:13.148Z,12.10
2018-10-07T17:25:41.408Z,10.33
2018-10-07T17:28:10.442Z,12.30
2018-10-07T17:30:39.478Z,13.13
2018-10-07T17:33:07.752Z,15.77
2018-10-07T17:35:36.047Z,16.17
2018-10-07T17:38:04.301Z,17.10
2018-10-07T17:40:32.578Z,13.13
2018-10-07T17:43:00.827Z,14.63
2018-10-07T17:45:29.125Z,15.03
2018-10-07T17:47:57.401Z,15.87
2018-10-07T17:50:25.656Z,14.57
2018-10-07T17:52:53.930Z,13.47
2018-10-07T17:55:22.285Z,15.03
2018-10-07T17:57:50.531Z,13.00
2018-10-07T18:00:18.786Z,14.77
2018-10-07T18:02:47.129Z,12.07
2018-10-07T18:05:15.335Z,13.80
2018-10-07T18:07:43.608Z,18.17
2018-10-07T18:10:11.907Z,15.80
2018-10-07T18:12:40.210Z,16.23
2018-10-07T18:15:09.245Z,14.37
2018-10-07T18:17:37.486Z,14.63
2018-10-07T18:20:06.990Z,14.83
2018-10-07T18:22:36.018Z,15.63
2018-10-07T18:25:04.294Z,14.43
2018-10-07T18:27:32.583Z,19.13
2018-10-07T18:30:00.855Z,13.87
2018-10-07T18:32:29.136Z,15.83
2018-10-07T18:34:57.402Z,12.33
2018-10-07T18:37:25.719Z,16.20
2018-10-07T18:39:53.959Z,12.63
2018-10-07T18:42:22.264Z,12.53
2018-10-07T18:44:50.500Z,15.40
2018-10-07T18:47:18.783Z,13.10
2018-10-07T18:49:47.048Z,10.40
2018-10-07T18:52:15.301Z,10.93
2018-10-07T18:54:43.614Z,11.53
2018-10-07T18:57:12.598Z,10.93
2018-10-07T18:59:40.879Z,10.47
2018-10-07T19:02:09.158Z,10.40
2018-10-07T19:04:37.402Z,13.23
2018-10-07T19:07:05.690Z,12.53
2018-10-07T19:09:33.946Z,9.13
2018-10-07T19:12:02.205Z,9.37
2018-10-07T19:14:31.378Z,9.67
2018-10-07T19:16:59.577Z,9.73
2018-10-07T19:19:28.586Z,9.33
2018-10-07T19:21:56.854Z,8.27
2018-10-07T19:24:25.867Z,9.70
2018-10-07T19:26:54.115Z,9.33
2018-10-07T19:29:23.142Z,9.40
2018-10-07T19:31:51.429Z,8.93
2018-10-07T19:34:19.695Z,9.80
2018-10-07T19:36:47.979Z,9.57
2018-10-07T19:39:16.193Z,8.47
2018-10-07T19:41:45.379Z,10.10
2018-10-07T19:44:13.630Z,8.10
2018-10-07T19:46:41.926Z,9.03
2018-10-07T19:49:10.195Z,9.70
2018-10-07T19:51:38.478Z,8.73
2018-10-07T19:54:07.004Z,9.10
2018-10-07T19:56:36.053Z,8.83
2018-10-07T19:59:04.302Z,7.63
2018-10-07T20:01:32.578Z,8.73
2018-10-07T20:04:00.819Z,9.83
2018-10-07T20:06:29.073Z,9.67
2018-10-07T20:08:58.276Z,8.97
2018-10-07T20:11:27.592Z,10.20
2018-10-07T20:13:56.095Z,11.00
2018-10-07T20:16:24.386Z,11.07
2018-10-07T20:18:52.918Z,10.47
2018-10-07T20:21:21.187Z,8.70
2018-10-07T20:23:50.216Z,9.10
2018-10-07T20:26:18.675Z,9.27
2018-10-07T20:28:47.154Z,9.40
2018-10-07T20:31:15.471Z,8.30
2018-10-07T20:33:44.536Z,8.27
2018-10-07T20:36:13.060Z,10.30
2018-10-07T20:38:41.353Z,9.03
2018-10-07T20:41:09.604Z,9.37
2018-10-07T20:43:38.070Z,8.17
2018-10-07T20:46:06.302Z,7.93
2018-10-07T20:48:34.566Z,8.33
2018-10-07T20:51:03.579Z,6.83
2018-10-07T20:53:31.837Z,8.83
2018-10-07T20:56:00.874Z,9.33
2018-10-07T20:58:29.126Z,9.77
2018-10-07T21:00:57.378Z,8.23
2018-10-07T21:03:26.412Z,8.57
2018-10-07T21:05:54.723Z,8.80
2018-10-07T21:08:22.962Z,8.00
2018-10-07T21:10:51.210Z,7.83
2018-10-07T21:13:19.499Z,10.17
2018-10-07T21:15:47.747Z,7.77
2018-10-07T21:18:16.761Z,8.13
2018-10-07T21:20:45.039Z,8.20
2018-10-07T21:23:13.278Z,6.90
2018-10-07T21:25:42.294Z,9.90
2018-10-07T21:28:10.550Z,10.70
2018-10-07T21:30:39.590Z,10.50
2018-10-07T21:33:07.837Z,8.60
2018-10-07T21:35:36.117Z,8.07
2018-10-07T21:38:04.367Z,9.53
2018-10-07T21:40:33.390Z,8.70
2018-10-07T21:43:01.655Z,11.10
2018-10-07T21:45:30.646Z,9.50
2018-10-07T21:47:58.924Z,10.03
2018-10-07T21:50:27.174Z,7.77
2018-10-07T21:52:55.402Z,8.57
2018-10-07T21:55:23.720Z,7.93
2018-10-07T21:57:51.963Z,10.20
2018-10-07T22:00:20.221Z,8.37
2018-10-07T22:02:48.466Z,7.17
2018-10-07T22:05:16.946Z,7.50
2018-10-07T22:07:45.935Z,7.97
2018-10-07T22:10:14.181Z,6.17
2018-10-07T22:12:42.449Z,7.23
2018-10-07T22:15:10.702Z,8.10
2018-10-07T22:17:38.975Z,7.23
2018-10-07T22:20:07.792Z,7.30
2018-10-07T22:22:36.988Z,8.03
2018-10-07T22:25:05.244Z,7.93
2018-10-07T22:27:34.257Z,9.40
2018-10-07T22:30:02.499Z,8.47
2018-10-07T22:32:30.766Z,7.57
2018-10-07T22:34:59.326Z,8.90
2018-10-07T22:37:27.584Z,8.03
2018-10-07T22:39:56.625Z,7.70
2018-10-07T22:42:24.890Z,7.77
2018-10-07T22:44:53.135Z,7.40
2018-10-07T22:47:21.373Z,7.47
2018-10-07T22:49:50.310Z,8.47
2018-10-07T22:52:18.782Z,7.17
2018-10-07T22:54:47.802Z,7.47
2018-10-07T22:57:16.178Z,7.43
2018-10-07T22:59:44.742Z,8.07
2018-10-07T23:02:13.002Z,7.70
2018-10-07T23:04:42.011Z,7.47
2018-10-07T23:07:10.268Z,8.77
2018-10-07T23:09:39.282Z,7.17
2018-10-07T23:12:07.546Z,7.93
2018-10-07T23:14:36.553Z,6.73
2018-10-07T23:17:04.789Z,7.27
2018-10-07T23:19:33.950Z,6.73
2018-10-07T23:22:02.185Z,6.23
2018-10-07T23:24:30.493Z,8.97
2018-10-07T23:26:59.478Z,8.27
2018-10-07T23:29:27.745Z,7.93
2018-10-07T23:31:56.011Z,7.37
2018-10-07T23:34:24.285Z,9.07
2018-10-07T23:36:52.544Z,8.77
2018-10-07T23:39:21.551Z,7.70
2018-10-07T23:41:49.792Z,6.77
2018-10-07T23:44:18.805Z,5.60
2018-10-07T23:46:47.167Z,5.43
2018-10-07T23:49:16.324Z,6.20
2018-10-07T23:51:44.669Z,6.23
2018-10-07T23:54:12.862Z,6.57
2018-10-07T23:56:41.107Z,6.90
2018-10-07T23:59:09.354Z,5.83
